Tropical Cyclones
[Index]
Main Index Home Page Stock Weather Photos Extreme Storms Discussion Storm News and Storm Chasing Reports Tropical Cyclones / Hurricanes / Typhoons Weather Data and Links Wild Fires / Bushfires Weather Observation Techniques Weather Picture Catalogue Tornado Pictures and Reports Stock Video Footage and DVDs for sale
Season 2005-2006 Tropical Cyclone FLOYD Track Map
Season 2005-2006 Summaries: [BoM-AU] [JTWC-AU] [JTWC-SIO] [JTWC-SPAC] [JTWC-SH]
<<- Previous TC | BoM 2005-2006 Season | Next TC ->>

click for intensity scale information  Lat/long Grid: Show Hide

 Date Labels: Show Hide

Bureau of Meteorology Tropical Cyclone Data

Name: FLOYD
Number: 899 / 200506_16

18 Mar 2006 12:00 UTC to 27 Mar 2006 06:00 UTC

    date/time    lat    long    hPa   cat  kts
2006-03-18 12   11.5   118.9   1004         20          
2006-03-18 18   11.5   118.7   1004         20          
2006-03-19 00   11.5   118.5   1004         20          
2006-03-19 06   11.5   118.3   1004         20          
2006-03-19 12   11.4   118.0   1002         25          
2006-03-19 18   11.3   117.7   1002         25          
2006-03-20 00   11.3   117.2   1002         25          
2006-03-20 06   11.4   116.8   1000         25          
2006-03-20 12   11.5   116.7    998         25          
2006-03-20 18   11.8   116.7    994    1    30          
2006-03-21 00   12.2   116.4    990    1    35          
2006-03-21 06   12.6   115.6    990    1    35          
2006-03-21 12   13.0   115.3    988    1    40          
2006-03-21 18   13.2   114.4    984    2    45          
2006-03-22 00   13.3   113.4    980    2    50          
2006-03-22 06   13.3   112.5    978    2    50          
2006-03-22 12   13.4   111.6    970    3    55          
2006-03-22 18   13.4   110.9    968    3    60          
2006-03-23 00   13.4   110.2    964    3    65          
2006-03-23 06   13.5   109.5    956    3    70          
2006-03-23 12   14.0   109.2    936    4    90          
2006-03-23 18   14.6   108.6    924    5    100          
2006-03-24 00   15.1   108.2    916    5    105          
2006-03-24 06   15.7   108.4    916    5    105          
2006-03-24 12   16.5   108.6    924    5    100          
2006-03-24 18   17.1   108.9    938    4    90          
2006-03-25 00   17.6   109.4    938    4    90          
2006-03-25 06   18.1   110.2    940    4    90          
2006-03-25 12   18.7   111.1    952    4    80          
2006-03-25 18   18.9   111.6    964    3    70          
2006-03-26 00   19.1   112.1    972    2    60          
2006-03-26 06   19.3   112.3    982    2    50          
2006-03-26 12   19.8   112.2    992    1    35          
2006-03-26 18   20.1   112.1    996         30          
2006-03-27 00   20.7   111.8    998         25          
2006-03-27 06   21.5   111.4   1000         25          
Winds are 10-min average.

Tropical cyclone tracks developed by Michael Bath using data from the Bureau of Meteorology and Google Maps.


[Australian Severe Weather index] [Copyright Notice] [Email Contacts] [Search This Site] [Privacy Policy]
Document: tropical_cyclone_floyd.htm Updated: 29 June 2017